Time;durP1;ratioP1;P1;durP2;ratioP2;P2;SDS_P1;SDS_P2;PMS_P1;PMS_P2;Temp;Humidity;BMP_temperature;BMP_pressure;BME280_temperature;BME280_humidity;BME280_pressure;Samples;Min_cycle;Max_cycle;Signal;HPM_P1;HPM_P2
2021/03/28 00:01:03;;;;;;;10.63;2.00;;;;;;;3.70;60.83;96796.81;5052704;28;20181;-75
2021/03/28 00:03:39;;;;;;;8.50;1.90;;;;;;;3.57;61.29;96798.31;5066257;28;20204;-75
2021/03/28 00:06:25;;;;;;;6.57;2.00;;;;;;;3.50;60.97;96794.38;5059593;28;20248;-75
2021/03/28 00:09:13;;;;;;;9.67;2.40;;;;;;;3.42;61.75;96796.50;5073009;28;20185;-75
2021/03/28 00:12:25;;;;;;;7.50;2.40;;;;;;;3.34;61.67;96798.59;5053691;28;20559;-75
2021/03/28 00:14:58;;;;;;;6.60;2.13;;;;;;;3.28;61.69;96798.91;5039104;28;20197;-76
2021/03/28 00:17:30;;;;;;;5.87;2.10;;;;;;;3.21;62.12;96800.09;5010596;28;20240;-75
2021/03/28 00:19:58;;;;;;;9.40;2.50;;;;;;;3.12;62.40;96797.03;5012102;28;20224;-76
2021/03/28 00:22:30;;;;;;;6.43;2.30;;;;;;;3.13;62.66;96798.69;4995614;28;20734;-74
2021/03/28 00:25:06;;;;;;;8.73;1.80;;;;;;;3.06;62.70;96805.03;5012108;28;20195;-75
2021/03/28 00:27:42;;;;;;;5.40;1.90;;;;;;;2.99;62.84;96797.66;4995936;28;20221;-75
2021/03/28 00:30:20;;;;;;;8.30;1.90;;;;;;;3.00;62.87;96801.91;4995786;28;20273;-75
2021/03/28 00:32:49;;;;;;;6.83;1.80;;;;;;;3.01;63.19;96801.03;5012047;28;20295;-75
2021/03/28 00:35:19;;;;;;;3.50;1.90;;;;;;;2.85;63.61;96800.88;5011923;28;20222;-75
2021/03/28 00:37:45;;;;;;;6.27;2.17;;;;;;;2.87;63.36;96805.94;4995499;28;20280;-75
2021/03/28 00:40:10;;;;;;;7.37;1.90;;;;;;;2.74;64.35;96805.66;5012085;28;20222;-75
2021/03/28 00:42:42;;;;;;;7.47;2.10;;;;;;;2.57;64.69;96810.72;5011982;28;20239;-75
2021/03/28 00:45:16;;;;;;;5.20;1.93;;;;;;;2.65;64.67;96801.78;5011730;28;20665;-75
2021/03/28 00:47:47;;;;;;;7.30;2.33;;;;;;;2.49;65.45;96804.19;5011917;28;20180;-76
2021/03/28 00:50:26;;;;;;;7.37;2.27;;;;;;;2.47;65.73;96800.88;5014900;28;20217;-75
2021/03/28 00:52:58;;;;;;;9.13;2.27;;;;;;;2.49;65.58;96801.63;5052600;28;20728;-75
2021/03/28 00:55:28;;;;;;;7.13;2.10;;;;;;;2.42;65.76;96805.38;5052246;28;20176;-75
2021/03/28 00:58:05;;;;;;;7.77;2.03;;;;;;;2.45;65.65;96794.97;5035250;28;20255;-75
2021/03/28 01:00:46;;;;;;;7.20;2.37;;;;;;;2.44;65.68;96792.47;5052609;28;20706;-75
2021/03/28 01:03:32;;;;;;;8.07;2.03;;;;;;;2.51;65.35;96792.13;5069163;28;20686;-75
2021/03/28 01:06:12;;;;;;;7.47;2.10;;;;;;;2.45;65.95;96789.84;5053412;28;20211;-75
2021/03/28 01:08:44;;;;;;;10.13;2.17;;;;;;;2.49;65.82;96790.56;5068877;28;20179;-75
2021/03/28 01:11:18;;;;;;;5.33;1.73;;;;;;;2.46;65.83;96798.34;5052319;28;20276;-75
2021/03/28 01:14:15;;;;;;;3.70;1.70;;;;;;;2.45;65.89;96789.84;5053445;28;20230;-75
2021/03/28 01:17:11;;;;;;;7.80;2.37;;;;;;;2.44;65.79;96790.75;5030777;28;20338;-76
2021/03/28 01:19:48;;;;;;;5.70;2.07;;;;;;;2.40;65.63;96783.28;5013969;28;20252;-75
2021/03/28 01:22:28;;;;;;;13.03;1.73;;;;;;;2.39;66.01;96787.56;5031091;28;20288;-75
2021/03/28 01:25:27;;;;;;;6.73;2.00;;;;;;;2.37;65.99;96784.22;5014095;28;20187;-74
2021/03/28 01:27:57;;;;;;;7.77;2.30;;;;;;;2.34;66.11;96786.09;5031002;28;20187;-75
2021/03/28 01:30:33;;;;;;;8.67;2.40;;;;;;;2.29;66.17;96786.28;5014440;28;20178;-75
2021/03/28 01:33:11;;;;;;;10.30;2.13;;;;;;;2.32;66.46;96783.59;5014235;28;20217;-75
2021/03/28 01:36:05;;;;;;;9.37;2.20;;;;;;;2.25;66.20;96782.19;5014064;28;20179;-74
2021/03/28 01:38:42;;;;;;;8.93;3.80;;;;;;;2.23;66.71;96787.41;5014261;28;20281;-75
2021/03/28 01:41:21;;;;;;;24.07;7.00;;;;;;;2.19;66.66;96787.59;5014140;28;20190;-75
2021/03/28 01:44:05;;;;;;;27.47;7.60;;;;;;;2.14;67.18;96787.78;5014075;28;20265;-75
2021/03/28 01:46:39;;;;;;;19.90;5.50;;;;;;;2.17;67.08;96787.66;5013993;28;20201;-75
2021/03/28 01:49:28;;;;;;;15.20;3.47;;;;;;;2.17;66.83;96784.25;4997751;28;20185;-75
2021/03/28 01:52:36;;;;;;;13.63;3.47;;;;;;;2.11;67.02;96776.81;5014180;28;20178;-75
2021/03/28 01:55:23;;;;;;;24.33;5.87;;;;;;;2.08;66.83;96776.97;5051193;28;20642;-75
2021/03/28 01:57:57;;;;;;;11.47;3.70;;;;;;;2.06;67.16;96783.91;5051437;28;20657;-74
2021/03/28 02:01:00;;;;;;;9.27;2.37;;;;;;;2.00;67.44;96784.97;5067917;28;20179;-74
2021/03/28 02:03:38;;;;;;;6.47;2.40;;;;;;;1.97;67.55;96788.50;5052506;28;20194;-74
2021/03/28 02:06:11;;;;;;;27.60;6.63;;;;;;;2.02;67.66;96787.47;5050929;28;20243;-74
2021/03/28 02:08:59;;;;;;;40.00;10.57;;;;;;;1.90;67.96;96783.72;5051582;28;20178;-75
2021/03/28 02:11:46;;;;;;;65.37;15.90;;;;;;;1.98;67.85;96791.91;5051080;28;20252;-74
2021/03/28 02:14:36;;;;;;;48.53;13.00;;;;;;;1.89;67.94;96788.00;5052676;28;20598;-75
2021/03/28 02:17:24;;;;;;;28.20;8.30;;;;;;;1.80;68.05;96785.81;5052134;28;20270;-74
2021/03/28 02:19:52;;;;;;;10.67;3.50;;;;;;;1.76;68.25;96786.84;5067225;28;20174;-74
2021/03/28 02:22:31;;;;;;;13.07;3.70;;;;;;;1.76;68.29;96783.44;5052210;28;20216;-75
2021/03/28 02:25:06;;;;;;;10.70;3.33;;;;;;;1.72;68.50;96793.00;5050622;28;20181;-74
2021/03/28 02:27:42;;;;;;;7.73;2.43;;;;;;;1.68;68.97;96794.03;5067508;28;20584;-74
2021/03/28 02:30:29;;;;;;;7.13;2.20;;;;;;;1.67;68.59;96790.59;5050797;28;20178;-75
2021/03/28 02:33:00;;;;;;;6.80;1.80;;;;;;;1.66;68.86;96785.56;5067465;28;20205;-75
2021/03/28 02:35:46;;;;;;;5.37;2.40;;;;;;;1.63;69.04;96780.56;5066994;28;20604;-74
2021/03/28 02:38:25;;;;;;;4.30;1.70;;;;;;;1.66;69.06;96788.94;5067341;28;20660;-74
2021/03/28 02:41:12;;;;;;;8.67;2.40;;;;;;;1.59;69.27;96795.25;5051920;28;20637;-75
2021/03/28 02:43:49;;;;;;;6.13;1.97;;;;;;;1.57;69.14;96794.44;5050243;28;20201;-74
2021/03/28 02:46:33;;;;;;;8.03;1.90;;;;;;;1.55;69.17;96787.72;5050278;28;20184;-74
2021/03/28 02:49:01;;;;;;;7.90;1.60;;;;;;;1.48;69.45;96787.13;5050373;28;20177;-74
2021/03/28 02:51:47;;;;;;;4.80;1.90;;;;;;;1.46;69.30;96786.38;5051702;28;20186;-74
2021/03/28 02:54:36;;;;;;;7.67;2.10;;;;;;;1.45;69.85;96783.88;5050570;28;20588;-75
2021/03/28 02:57:13;;;;;;;6.13;1.67;;;;;;;1.47;69.54;96789.75;5040606;28;20646;-75
2021/03/28 03:00:15;;;;;;;6.73;2.10;;;;;;;1.50;69.57;96779.38;5051610;28;20260;-74
2021/03/28 03:03:07;;;;;;;5.80;1.87;;;;;;;1.49;69.49;96787.97;5051387;28;20271;-74
2021/03/28 03:05:51;;;;;;;5.20;1.80;;;;;;;1.56;69.75;96789.38;5066640;28;20560;-74
2021/03/28 03:08:25;;;;;;;9.13;2.00;;;;;;;1.53;69.37;96785.22;5051538;28;20189;-74
2021/03/28 03:10:56;;;;;;;6.20;1.83;;;;;;;1.54;69.51;96786.06;5050186;28;20226;-74
2021/03/28 03:13:33;;;;;;;6.67;2.03;;;;;;;1.64;69.22;96787.34;5050214;28;20867;-74
2021/03/28 03:16:17;;;;;;;7.03;1.83;;;;;;;1.62;69.29;96784.03;5049925;28;20561;-74
2021/03/28 03:19:14;;;;;;;7.23;1.70;;;;;;;1.56;69.39;96799.63;5051192;28;20205;-74
2021/03/28 03:22:04;;;;;;;11.30;1.97;;;;;;;1.52;69.67;96788.69;5057989;28;20250;-74
2021/03/28 03:25:06;;;;;;;4.63;2.17;;;;;;;1.53;69.56;96780.13;5057765;28;20646;-74
2021/03/28 03:27:57;;;;;;;4.77;1.70;;;;;;;1.58;69.18;96782.47;5057933;28;20177;-74
2021/03/28 03:30:36;;;;;;;5.63;1.43;;;;;;;1.53;69.75;96786.97;5058122;28;20188;-75
2021/03/28 03:33:25;;;;;;;6.90;1.70;;;;;;;1.56;69.75;96786.84;5073503;28;20247;-74
2021/03/28 03:36:26;;;;;;;8.57;2.10;;;;;;;1.51;69.90;96788.75;5056295;28;20645;-75
2021/03/28 03:39:11;;;;;;;5.20;1.90;;;;;;;1.50;69.68;96793.03;5056550;28;20763;-74
2021/03/28 03:42:10;;;;;;;8.60;1.97;;;;;;;1.44;69.83;96800.13;5056912;28;20588;-75
2021/03/28 03:44:54;;;;;;;7.03;1.50;;;;;;;1.39;70.02;96800.31;5057497;28;20553;-74
2021/03/28 03:47:32;;;;;;;5.90;1.57;;;;;;;1.45;70.06;96796.69;5056616;28;20188;-74
2021/03/28 03:50:21;;;;;;;9.40;2.53;;;;;;;1.40;70.30;96801.97;5073370;28;20177;-74
2021/03/28 03:53:05;;;;;;;10.37;2.23;;;;;;;1.38;70.70;96802.03;5039879;28;20275;-74
2021/03/28 03:55:59;;;;;;;6.53;1.93;;;;;;;1.44;69.91;96806.09;5057506;28;20552;-74
2021/03/28 03:58:30;;;;;;;4.47;1.73;;;;;;;1.46;70.13;96803.47;5056460;28;20205;-75
2021/03/28 04:01:13;;;;;;;7.80;1.60;;;;;;;1.45;70.39;96799.25;5073116;28;20185;-75
2021/03/28 04:03:56;;;;;;;4.73;1.70;;;;;;;1.50;70.17;96805.00;5057602;28;20292;-74
2021/03/28 04:07:00;;;;;;;5.70;2.23;;;;;;;1.56;69.96;96799.63;5073038;28;20184;-74
2021/03/28 04:09:49;;;;;;;6.50;1.80;;;;;;;1.55;70.05;96803.91;5035195;28;20658;-75
2021/03/28 04:12:25;;;;;;;6.17;2.00;;;;;;;1.68;69.82;96811.94;5018643;28;20221;-74
2021/03/28 04:15:02;;;;;;;6.77;1.70;;;;;;;1.68;69.85;96809.38;5018436;28;20572;-74
2021/03/28 04:17:44;;;;;;;5.07;1.97;;;;;;;1.75;69.51;96800.53;5018627;28;20202;-74
2021/03/28 04:20:18;;;;;;;8.53;1.80;;;;;;;1.90;68.81;96805.03;5018421;28;20345;-74
2021/03/28 04:23:04;;;;;;;6.10;1.47;;;;;;;1.93;68.93;96794.66;5035255;28;20209;-74
2021/03/28 04:25:41;;;;;;;7.43;1.70;;;;;;;2.04;68.10;96798.50;5035000;28;20186;-75
2021/03/28 04:28:44;;;;;;;9.23;2.03;;;;;;;2.06;67.98;96797.53;5035116;28;20674;-74
2021/03/28 04:31:34;;;;;;;8.73;1.90;;;;;;;1.95;68.39;96794.59;5033428;28;20329;-75
2021/03/28 04:34:04;;;;;;;5.07;1.30;;;;;;;1.93;68.35;96797.22;5031953;28;20210;-74
2021/03/28 04:36:41;;;;;;;6.73;1.70;;;;;;;1.82;68.60;96796.84;5015208;28;20277;-75
2021/03/28 04:39:44;;;;;;;8.87;1.90;;;;;;;1.78;69.02;96800.44;5032912;28;20210;-75
2021/03/28 04:42:23;;;;;;;6.80;2.00;;;;;;;1.64;69.18;96800.16;5052748;28;20213;-75
2021/03/28 04:45:10;;;;;;;8.53;1.93;;;;;;;1.61;69.28;96797.72;5053861;28;20180;-75
2021/03/28 04:47:51;;;;;;;6.23;2.10;;;;;;;1.52;69.82;96803.22;5054030;28;20661;-75
2021/03/28 04:50:41;;;;;;;6.70;1.80;;;;;;;1.54;69.78;96804.00;5054039;28;20260;-77
2021/03/28 04:53:38;;;;;;;5.80;1.57;;;;;;;1.39;70.16;96797.75;5053869;28;20569;-75
2021/03/28 04:56:22;;;;;;;9.13;1.93;;;;;;;1.32;70.25;96809.94;5069176;28;20170;-75
2021/03/28 04:59:06;;;;;;;6.70;2.37;;;;;;;1.29;70.75;96810.06;5053828;28;20233;-75
2021/03/28 05:02:10;;;;;;;6.53;1.80;;;;;;;1.29;70.60;96815.19;5052330;28;20560;-75
2021/03/28 05:05:02;;;;;;;5.87;2.27;;;;;;;1.25;70.80;96818.78;5049947;28;20314;-74
2021/03/28 05:07:44;;;;;;;5.93;1.80;;;;;;;1.24;70.76;96816.28;5069115;28;20206;-74
2021/03/28 05:10:42;;;;;;;7.97;1.90;;;;;;;1.18;71.32;96822.47;5053632;28;20307;-75
2021/03/28 05:13:51;;;;;;;7.67;1.90;;;;;;;1.20;70.88;96818.13;5068860;28;20213;-75
2021/03/28 05:16:51;;;;;;;5.00;1.70;;;;;;;1.24;71.10;96824.78;5068638;28;20185;-75
2021/03/28 05:19:53;;;;;;;4.93;1.60;;;;;;;1.29;71.05;96829.72;5051998;28;20200;-74
2021/03/28 05:22:37;;;;;;;6.83;2.00;;;;;;;1.27;71.31;96826.41;5053404;28;20243;-74
2021/03/28 05:25:24;;;;;;;5.27;1.60;;;;;;;1.31;70.84;96831.31;5053192;28;20180;-75
2021/03/28 05:28:04;;;;;;;7.70;2.10;;;;;;;1.33;70.91;96829.56;5052042;28;20588;-74
2021/03/28 05:30:41;;;;;;;6.23;2.07;;;;;;;1.34;70.62;96820.16;5051978;28;20224;-75
2021/03/28 05:33:24;;;;;;;8.13;2.03;;;;;;;1.38;70.58;96832.75;5068676;28;20251;-75
2021/03/28 05:36:04;;;;;;;6.97;2.00;;;;;;;1.38;70.93;96837.88;5052793;28;20174;-74
2021/03/28 05:38:54;;;;;;;9.37;2.13;;;;;;;1.46;70.45;96847.81;5051719;28;20304;-74
2021/03/28 05:41:40;;;;;;;8.23;2.13;;;;;;;1.45;70.81;96843.59;5053002;28;20181;-74
2021/03/28 05:44:26;;;;;;;7.43;2.03;;;;;;;1.65;70.39;96845.34;5051617;28;20186;-74
2021/03/28 05:47:13;;;;;;;5.90;2.07;;;;;;;2.06;68.58;96846.22;5053316;28;20185;-74
2021/03/28 05:49:50;;;;;;;5.13;1.70;;;;;;;2.13;68.32;96834.00;5051603;28;20200;-75
2021/03/28 05:52:53;;;;;;;4.50;1.83;;;;;;;2.32;67.46;96831.47;5068430;28;20280;-74
2021/03/28 05:55:55;;;;;;;12.03;2.60;;;;;;;2.30;67.34;96823.00;5052483;28;20660;-75
2021/03/28 05:58:41;;;;;;;10.13;2.40;;;;;;;2.36;67.73;96828.69;5068101;28;20201;-75
2021/03/28 06:01:19;;;;;;;5.63;2.17;;;;;;;2.42;66.98;96838.69;5051255;28;20184;-76
2021/03/28 06:04:21;;;;;;;5.60;1.90;;;;;;;2.45;67.01;96841.13;5068132;28;20577;-74
2021/03/28 06:07:23;;;;;;;6.10;2.23;;;;;;;2.53;67.01;96841.63;5052525;28;20212;-74
2021/03/28 06:10:10;;;;;;;11.23;2.17;;;;;;;2.67;66.90;96850.44;5052454;28;20647;-74
2021/03/28 06:13:06;;;;;;;7.37;2.07;;;;;;;2.87;65.87;96852.97;5067660;28;20213;-74
2021/03/28 06:16:14;;;;;;;6.67;1.80;;;;;;;2.92;65.70;96851.03;5067335;28;20231;-74
2021/03/28 06:19:16;;;;;;;6.37;1.57;;;;;;;3.11;65.48;96856.16;5040891;28;20243;-74
2021/03/28 06:22:03;;;;;;;10.37;2.10;;;;;;;3.22;64.51;96851.34;5052050;28;20180;-74
2021/03/28 06:24:58;;;;;;;5.70;1.40;;;;;;;3.36;64.66;96846.41;5051961;28;20182;-74
2021/03/28 06:27:42;;;;;;;5.13;1.60;;;;;;;3.55;63.86;96853.25;5067636;28;20183;-74
2021/03/28 06:30:29;;;;;;;8.57;2.00;;;;;;;3.58;64.09;96853.94;5052001;28;20672;-74
2021/03/28 06:33:21;;;;;;;6.80;1.90;;;;;;;3.78;63.67;96860.66;5067434;28;20276;-73
2021/03/28 06:36:17;;;;;;;14.30;4.70;;;;;;;3.81;63.79;96847.69;5050569;28;20656;-74
2021/03/28 06:38:53;;;;;;;11.20;4.40;;;;;;;4.08;62.52;96848.06;5050986;28;20304;-75
2021/03/28 06:41:30;;;;;;;9.77;3.53;;;;;;;4.28;62.12;96853.97;5067419;28;20183;-74
2021/03/28 06:44:11;;;;;;;8.67;3.70;;;;;;;4.45;61.66;96866.78;5051765;28;20200;-74
2021/03/28 06:46:45;;;;;;;12.50;4.77;;;;;;;4.59;61.54;96878.94;5051579;28;20273;-74
2021/03/28 06:49:38;;;;;;;12.70;3.60;;;;;;;4.81;60.59;96876.94;5067332;28;20186;-73
2021/03/28 06:52:34;;;;;;;11.20;2.60;;;;;;;4.90;60.21;96870.47;5051751;28;20224;-73
2021/03/28 06:55:31;;;;;;;8.20;2.60;;;;;;;5.15;60.20;96873.41;5049742;28;20205;-76
2021/03/28 06:58:14;;;;;;;7.30;2.10;;;;;;;5.20;59.50;96870.56;5051534;28;20215;-76
2021/03/28 07:01:11;;;;;;;6.60;2.33;;;;;;;5.43;59.89;96874.50;5051693;28;20552;-76
2021/03/28 07:04:11;;;;;;;10.73;2.23;;;;;;;5.48;59.20;96868.19;5051737;28;20257;-76
2021/03/28 07:06:58;;;;;;;4.47;2.20;;;;;;;5.64;58.07;96876.72;5066777;28;20202;-74
2021/03/28 07:09:56;;;;;;;6.80;2.10;;;;;;;5.70;57.55;96875.56;5050338;28;20730;-73
2021/03/28 07:12:59;;;;;;;7.77;1.80;;;;;;;5.74;57.51;96877.03;5066701;28;20228;-74
2021/03/28 07:15:47;;;;;;;6.03;1.97;;;;;;;5.88;57.25;96874.53;5071132;28;20719;-74
2021/03/28 07:18:30;;;;;;;7.33;2.63;;;;;;;6.12;56.22;96872.34;5070255;28;20578;-74
2021/03/28 07:21:05;;;;;;;4.97;1.70;;;;;;;6.16;56.54;96880.72;5064275;28;20204;-73
2021/03/28 07:23:42;;;;;;;4.93;1.90;;;;;;;6.20;56.20;96885.63;5052592;28;20204;-73
2021/03/28 07:26:20;;;;;;;5.20;2.00;;;;;;;6.61;55.82;96884.13;5048540;28;20656;-73
2021/03/28 07:29:09;;;;;;;9.17;2.67;;;;;;;6.69;55.13;96884.50;5070217;28;20180;-73
2021/03/28 07:31:55;;;;;;;5.97;2.07;;;;;;;6.84;54.35;96893.09;5051615;28;20231;-73
2021/03/28 07:34:42;;;;;;;6.47;2.97;;;;;;;6.75;54.19;96890.13;5069234;28;20184;-73
2021/03/28 07:37:16;;;;;;;4.97;1.87;;;;;;;6.84;54.30;96896.50;5068142;28;20191;-73
2021/03/28 07:40:08;;;;;;;5.90;2.90;;;;;;;6.86;54.49;96904.97;5070882;28;20324;-73
2021/03/28 07:42:47;;;;;;;6.20;2.20;;;;;;;7.06;53.72;96898.59;5064659;28;20201;-73
2021/03/28 07:45:45;;;;;;;6.20;2.17;;;;;;;7.20;53.95;96898.59;5071086;28;20264;-73
2021/03/28 07:48:10;;;;;;;7.03;1.90;;;;;;;7.28;53.37;96908.47;5051334;28;20540;-72
2021/03/28 07:50:56;;;;;;;9.73;1.90;;;;;;;7.39;52.78;96918.97;5070479;28;20185;-73
2021/03/28 07:53:42;;;;;;;4.33;1.67;;;;;;;7.55;52.80;96930.03;5044473;28;20204;-74
2021/03/28 07:56:34;;;;;;;7.43;2.23;;;;;;;7.67;52.60;96933.59;5050938;28;20201;-73
2021/03/28 07:59:17;;;;;;;5.40;1.57;;;;;;;7.74;53.06;96934.06;5073835;28;20200;-73
2021/03/28 08:01:53;;;;;;;8.50;1.50;;;;;;;7.55;53.23;96935.19;5067512;28;20181;-73
2021/03/28 08:04:47;;;;;;;6.10;1.67;;;;;;;7.43;53.06;96929.97;5045218;28;20268;-74
2021/03/28 08:07:32;;;;;;;6.20;1.70;;;;;;;7.14;52.84;96934.31;5053731;28;20199;-74
2021/03/28 08:10:32;;;;;;;4.80;1.43;;;;;;;7.03;53.79;96928.03;5074730;28;20680;-74
2021/03/28 08:13:13;;;;;;;7.70;1.60;;;;;;;6.95;53.57;96942.34;5073175;28;20236;-74
2021/03/28 08:15:47;;;;;;;4.40;1.40;;;;;;;6.90;53.71;96939.22;5074450;28;20173;-74
2021/03/28 08:18:12;;;;;;;5.73;1.50;;;;;;;6.88;53.57;96939.28;5073393;28;20204;-74
2021/03/28 08:21:03;;;;;;;5.60;2.20;;;;;;;6.88;53.46;96936.69;5074532;28;20173;-74
2021/03/28 08:23:40;;;;;;;8.03;2.50;;;;;;;6.94;53.21;96941.50;5061334;28;20604;-74
2021/03/28 08:26:25;;;;;;;5.17;1.90;;;;;;;6.86;52.50;96943.72;5070614;28;20181;-73
2021/03/28 08:29:11;;;;;;;4.93;1.83;;;;;;;6.94;52.81;96946.66;5073355;28;20223;-73
2021/03/28 08:31:57;;;;;;;4.47;1.23;;;;;;;7.03;52.90;96951.28;5074074;28;20253;-74
2021/03/28 08:34:53;;;;;;;8.80;1.97;;;;;;;6.98;51.97;96949.88;5072853;28;20177;-74
2021/03/28 08:37:34;;;;;;;10.50;2.00;;;;;;;7.02;51.39;96954.78;5074134;28;20256;-73
2021/03/28 08:40:09;;;;;;;5.07;1.50;;;;;;;7.14;49.37;96950.63;5056019;28;20173;-74
2021/03/28 08:42:34;;;;;;;6.80;1.70;;;;;;;7.35;49.91;96948.53;5055952;28;20223;-74
2021/03/28 08:45:27;;;;;;;6.27;1.90;;;;;;;7.38;50.33;96946.56;5073936;28;20165;-73
2021/03/28 08:48:17;;;;;;;5.40;1.30;;;;;;;7.44;49.18;96942.78;5073003;28;20169;-73
2021/03/28 08:50:58;;;;;;;8.17;1.67;;;;;;;7.53;49.53;96951.75;5072612;28;20193;-74
2021/03/28 08:54:04;;;;;;;3.43;1.47;;;;;;;7.51;49.79;96936.31;5073963;28;20626;-73
2021/03/28 08:56:49;;;;;;;6.30;2.03;;;;;;;7.66;49.05;96945.69;5073577;28;20519;-73
2021/03/28 08:59:19;;;;;;;4.70;1.47;;;;;;;7.66;47.54;96940.53;5055415;28;20686;-73
2021/03/28 09:01:47;;;;;;;5.00;1.30;;;;;;;7.69;48.28;96934.34;5073629;28;20173;-74
2021/03/28 09:04:24;;;;;;;4.07;1.53;;;;;;;7.80;47.38;96949.19;5072456;28;20177;-74
2021/03/28 09:07:23;;;;;;;9.80;2.00;;;;;;;8.01;48.46;96942.66;5073673;28;20211;-73
2021/03/28 09:10:18;;;;;;;4.67;1.43;;;;;;;8.21;48.50;96938.78;5073521;28;20294;-73
2021/03/28 09:13:08;;;;;;;4.33;1.63;;;;;;;8.40;48.83;96934.13;5073354;28;20690;-73
2021/03/28 09:15:49;;;;;;;3.50;1.63;;;;;;;8.32;46.11;96933.75;5072010;28;20185;-73
2021/03/28 09:18:39;;;;;;;7.90;1.63;;;;;;;8.42;46.00;96941.78;5071741;28;20219;-73
2021/03/28 09:21:16;;;;;;;6.20;1.40;;;;;;;8.54;46.67;96948.72;5073268;28;20173;-72
2021/03/28 09:24:17;;;;;;;5.83;1.80;;;;;;;8.68;45.30;96943.47;5072043;28;20269;-72
2021/03/28 09:26:45;;;;;;;3.10;1.50;;;;;;;9.03;46.34;96942.88;5050555;28;20186;-73
2021/03/28 09:29:35;;;;;;;11.97;3.33;;;;;;;8.96;45.01;96936.44;5034120;28;20232;-74
2021/03/28 09:32:31;;;;;;;5.17;1.83;;;;;;;8.87;43.47;96934.47;5050751;28;20198;-74
2021/03/28 09:35:14;;;;;;;9.50;2.50;;;;;;;8.83;44.50;96931.25;5050396;28;20192;-74
2021/03/28 09:37:54;;;;;;;5.60;2.20;;;;;;;8.86;44.09;96928.47;5050678;28;20212;-74
2021/03/28 09:40:31;;;;;;;7.07;1.90;;;;;;;9.30;43.55;96922.00;5050769;28;20212;-74
2021/03/28 09:43:20;;;;;;;5.63;1.57;;;;;;;9.46;44.31;96921.78;5033764;28;20220;-74
2021/03/28 09:46:05;;;;;;;4.73;1.37;;;;;;;9.36;45.38;96930.19;5034138;28;20182;-74
2021/03/28 09:48:43;;;;;;;6.40;1.83;;;;;;;9.21;43.09;96922.66;5050619;28;20202;-75
2021/03/28 09:51:37;;;;;;;3.27;1.20;;;;;;;9.29;43.78;96934.16;5030603;28;20257;-75
2021/03/28 09:54:08;;;;;;;3.90;1.33;;;;;;;9.29;42.88;96934.16;5035189;28;20314;-74
2021/03/28 09:56:55;;;;;;;5.33;1.63;;;;;;;9.22;41.99;96922.53;5038249;28;20190;-74
2021/03/28 09:59:42;;;;;;;3.33;1.60;;;;;;;9.42;44.13;96928.09;5004440;28;20197;-74
2021/03/28 10:02:07;;;;;;;4.67;1.57;;;;;;;9.50;43.22;96916.25;5068711;28;20204;-75
2021/03/28 10:05:04;;;;;;;7.07;1.67;;;;;;;9.20;41.52;96906.28;5059132;28;20186;-74
2021/03/28 10:07:40;;;;;;;3.63;1.50;;;;;;;9.69;44.60;96920.16;5064120;28;20232;-76
2021/03/28 10:10:20;;;;;;;3.63;1.53;;;;;;;9.79;42.23;96910.78;5051795;28;20196;-73
2021/03/28 10:13:19;;;;;;;4.70;1.67;;;;;;;9.47;42.81;96905.28;5072071;28;20208;-74
2021/03/28 10:16:03;;;;;;;4.30;1.57;;;;;;;9.81;43.87;96909.75;5072117;28;20574;-73
2021/03/28 10:18:46;;;;;;;2.60;1.40;;;;;;;9.95;45.01;96903.56;5072029;28;20197;-73
2021/03/28 10:21:21;;;;;;;7.33;1.50;;;;;;;9.94;43.89;96907.91;5069114;28;20283;-73
2021/03/28 10:24:10;;;;;;;3.57;1.60;;;;;;;10.18;45.21;96904.50;5058516;28;20205;-73
2021/03/28 10:26:43;;;;;;;5.67;1.67;;;;;;;10.30;43.87;96900.19;5064273;28;20193;-74
2021/03/28 10:29:30;;;;;;;5.20;2.03;;;;;;;9.91;42.82;96910.75;5070149;28;20169;-73
2021/03/28 10:32:10;;;;;;;7.47;1.80;;;;;;;9.80;42.32;96902.88;5071775;28;20860;-74
2021/03/28 10:35:13;;;;;;;7.17;2.10;;;;;;;9.73;43.23;96891.31;5070502;28;20207;-74
2021/03/28 10:38:02;;;;;;;4.50;2.00;;;;;;;9.98;44.19;96879.97;5068550;28;20584;-74
2021/03/28 10:40:33;;;;;;;7.27;1.70;;;;;;;10.16;45.16;96885.59;5071839;28;20188;-74
2021/03/28 10:43:04;;;;;;;5.80;1.63;;;;;;;9.99;43.80;96883.41;5067595;28;20205;-74
2021/03/28 10:45:48;;;;;;;4.17;1.60;;;;;;;10.29;44.82;96894.16;5070785;28;20662;-74
2021/03/28 10:48:54;;;;;;;6.63;1.73;;;;;;;10.46;44.25;96885.97;5070583;28;20699;-74
2021/03/28 10:51:50;;;;;;;4.40;1.33;;;;;;;10.48;43.82;96883.25;5070576;28;20200;-74
2021/03/28 10:54:40;;;;;;;4.57;1.87;;;;;;;10.55;41.98;96879.25;5070193;28;20173;-74
2021/03/28 10:57:50;;;;;;;5.03;1.90;;;;;;;10.56;43.66;96877.47;5072021;28;20540;-74
2021/03/28 11:00:56;;;;;;;3.87;1.50;;;;;;;10.40;42.55;96873.41;5070660;28;20185;-74
2021/03/28 11:03:41;;;;;;;4.13;1.50;;;;;;;10.52;43.33;96860.50;5048260;28;20579;-74
2021/03/28 11:06:31;;;;;;;3.90;1.73;;;;;;;10.44;41.58;96855.88;5070098;28;20168;-74
2021/03/28 11:09:07;;;;;;;5.70;1.80;;;;;;;9.90;43.27;96858.97;5071563;28;20261;-74
2021/03/28 11:11:42;;;;;;;7.70;2.07;;;;;;;10.27;43.79;96851.94;5070333;28;20208;-74
2021/03/28 11:14:21;;;;;;;5.43;1.80;;;;;;;10.45;42.88;96847.13;5062397;28;20565;-74
2021/03/28 11:16:55;;;;;;;4.70;1.60;;;;;;;10.78;42.50;96843.75;5049977;28;20174;-74
2021/03/28 11:19:56;;;;;;;2.90;1.50;;;;;;;10.84;41.49;96843.25;5051377;28;20225;-74
2021/03/28 11:22:43;;;;;;;4.37;1.73;;;;;;;10.87;41.48;96843.06;5050104;28;20192;-74
2021/03/28 11:25:19;;;;;;;7.27;2.10;;;;;;;10.99;40.67;96836.91;5049998;28;20177;-73
2021/03/28 11:27:54;;;;;;;3.20;1.67;;;;;;;10.74;41.33;96839.72;5050059;28;20541;-74
2021/03/28 11:30:40;;;;;;;4.83;2.03;;;;;;;10.87;42.99;96835.25;5050154;28;20200;-73
2021/03/28 11:33:27;;;;;;;4.67;1.60;;;;;;;10.88;40.78;96834.31;5055253;28;20205;-74
2021/03/28 11:35:56;;;;;;;5.17;2.20;;;;;;;10.92;41.54;96838.31;5073290;28;20633;-74
2021/03/28 11:38:22;;;;;;;6.40;1.50;;;;;;;11.09;40.26;96833.59;5066162;28;20272;-74
2021/03/28 11:40:48;;;;;;;5.30;1.80;;;;;;;11.06;40.17;96832.88;5074209;28;20224;-74
2021/03/28 11:43:38;;;;;;;6.47;1.47;;;;;;;11.25;41.04;96834.03;5073198;28;20251;-73
2021/03/28 11:46:04;;;;;;;7.67;1.53;;;;;;;10.97;38.94;96836.19;5075020;28;20540;-74
2021/03/28 11:48:36;;;;;;;4.47;1.47;;;;;;;10.97;38.42;96825.78;5073812;28;20169;-73
2021/03/28 11:51:22;;;;;;;5.00;1.50;;;;;;;11.15;40.02;96826.13;5057351;28;20173;-74
2021/03/28 11:53:51;;;;;;;4.63;1.47;;;;;;;11.42;40.74;96819.72;5073617;28;20192;-73
2021/03/28 11:56:36;;;;;;;4.87;1.40;;;;;;;11.52;40.30;96820.63;5073436;28;20231;-74
2021/03/28 11:59:04;;;;;;;3.87;1.50;;;;;;;11.68;38.52;96807.22;5073603;28;20192;-74
2021/03/28 12:04:41;;;;;;;2.80;1.03;;;;;;;11.81;36.58;96803.53;5074505;28;20192;-73
2021/03/28 12:07:26;;;;;;;3.50;1.20;;;;;;;11.76;37.90;96799.63;5073722;28;20566;-74
2021/03/28 12:10:03;;;;;;;3.70;1.70;;;;;;;11.78;38.72;96803.75;5056722;28;20230;-74
2021/03/28 12:12:52;;;;;;;3.83;1.37;;;;;;;11.86;39.36;96808.38;5069220;28;20221;-75
2021/03/28 12:15:45;;;;;;;5.90;2.00;;;;;;;12.02;38.34;96816.59;5071110;28;20273;-75
2021/03/28 12:18:35;;;;;;;5.97;1.50;;;;;;;12.11;38.47;96815.84;5066509;28;20204;-74
2021/03/28 12:21:07;;;;;;;4.47;1.40;;;;;;;12.19;38.92;96816.03;5063186;28;20239;-74
2021/03/28 12:23:56;;;;;;;7.83;1.77;;;;;;;12.19;38.22;96813.41;5063700;28;20197;-75
2021/03/28 12:26:41;;;;;;;2.70;1.33;;;;;;;12.23;37.51;96819.19;5054217;28;20664;-74
2021/03/28 12:29:24;;;;;;;4.30;1.50;;;;;;;11.99;36.92;96819.41;5061270;28;20236;-76
2021/03/28 12:31:51;;;;;;;3.73;1.60;;;;;;;11.66;36.95;96814.31;5071144;28;20229;-73
2021/03/28 12:34:35;;;;;;;3.97;1.47;;;;;;;11.83;37.61;96819.00;5074377;28;20762;-73
2021/03/28 12:37:07;;;;;;;5.53;1.67;;;;;;;11.85;36.71;96806.72;5074502;28;20570;-74
2021/03/28 12:39:41;;;;;;;3.90;1.67;;;;;;;11.72;37.10;96801.63;5052582;28;20198;-73
2021/03/28 12:42:15;;;;;;;5.87;1.70;;;;;;;11.34;37.53;96800.34;5070261;28;20196;-74
2021/03/28 12:44:42;;;;;;;5.13;1.90;;;;;;;11.62;37.52;96793.75;5077527;28;20185;-72
2021/03/28 12:47:20;;;;;;;4.30;1.27;;;;;;;11.59;37.35;96793.19;5071871;28;20213;-73
2021/03/28 12:49:47;;;;;;;4.53;1.73;;;;;;;11.44;37.25;96782.22;5064872;28;20181;-72
2021/03/28 12:52:12;;;;;;;3.90;1.37;;;;;;;11.67;38.36;96784.75;5066966;28;20205;-73
2021/03/28 12:55:00;;;;;;;5.47;1.57;;;;;;;11.36;37.11;96779.41;5073439;28;20322;-76
2021/03/28 12:57:42;;;;;;;5.30;1.67;;;;;;;11.53;37.30;96788.47;5068873;28;20213;-74
2021/03/28 13:00:16;;;;;;;3.83;1.23;;;;;;;11.45;36.64;96781.25;5065190;28;20237;-75